Time;durP1;ratioP1;P1;durP2;ratioP2;P2;SDS_P1;SDS_P2;PMS_P1;PMS_P2;Temp;Humidity;BMP_temperature;BMP_pressure;BME280_temperature;BME280_humidity;BME280_pressure;Samples;Min_cycle;Max_cycle;Signal;HPM_P1;HPM_P2
2022/09/24 00:01:12;;;;;;;5.90;5.30;;;10.50;99.90;;;;;;5031400;28;20436;-73
2022/09/24 00:03:40;;;;;;;7.73;5.30;;;10.60;99.90;;;;;;5031729;28;20469;-74
2022/09/24 00:06:07;;;;;;;5.80;5.30;;;10.60;99.90;;;;;;5031419;28;20491;-73
2022/09/24 00:08:34;;;;;;;5.57;5.07;;;10.60;99.90;;;;;;5031721;28;20913;-73
2022/09/24 00:11:05;;;;;;;5.30;4.80;;;10.60;99.90;;;;;;5031329;28;20438;-73
2022/09/24 00:13:32;;;;;;;7.53;5.47;;;10.60;99.90;;;;;;5031970;28;20408;-73
2022/09/24 00:16:02;;;;;;;13.43;6.23;;;10.70;99.90;;;;;;5035498;28;20460;-73
2022/09/24 00:18:28;;;;;;;5.97;4.90;;;10.70;99.90;;;;;;5035428;28;20513;-73
2022/09/24 00:20:54;;;;;;;6.90;4.73;;;10.70;99.90;;;;;;5033900;28;20555;-73
2022/09/24 00:23:19;;;;;;;6.13;5.67;;;10.70;99.90;;;;;;5035696;28;20331;-75
2022/09/24 00:28:31;;;;;;;7.47;6.07;;;10.70;99.90;;;;;;5035355;28;20257;-73
2022/09/24 00:30:58;;;;;;;6.10;5.50;;;10.80;99.90;;;;;;5035042;28;20427;-73
2022/09/24 00:33:27;;;;;;;7.40;4.73;;;10.80;99.90;;;;;;5034275;28;21028;-73
2022/09/24 00:35:56;;;;;;;6.50;5.80;;;10.80;99.90;;;;;;5035054;28;20498;-75
2022/09/24 00:38:22;;;;;;;6.00;5.17;;;10.90;99.90;;;;;;5035382;28;20405;-73
2022/09/24 00:40:48;;;;;;;7.10;5.70;;;10.80;99.90;;;;;;5035062;28;20522;-73
2022/09/24 00:43:28;;;;;;;6.97;5.50;;;10.80;99.90;;;;;;5034909;28;20489;-73
2022/09/24 00:46:01;;;;;;;8.60;5.90;;;10.80;99.90;;;;;;5035105;28;20166;-73
2022/09/24 00:48:26;;;;;;;8.97;6.03;;;10.80;99.90;;;;;;5034960;28;20550;-73
2022/09/24 00:50:52;;;;;;;6.53;5.93;;;10.80;99.90;;;;;;5034748;28;21014;-73
2022/09/24 00:53:21;;;;;;;6.50;5.90;;;10.80;99.90;;;;;;5034918;28;20197;-73
2022/09/24 00:55:53;;;;;;;8.80;6.23;;;10.80;99.90;;;;;;5034709;28;20464;-73
2022/09/24 00:58:18;;;;;;;6.50;5.03;;;10.70;99.90;;;;;;5034666;28;20412;-73
2022/09/24 02:31:27;;;;;;;8.67;7.00;;;9.70;99.90;;;;;;5763894;22;20500;-73
2022/09/24 02:36:38;;;;;;;11.67;7.00;;;9.80;99.90;;;;;;5032342;28;21003;-72
2022/09/24 02:39:04;;;;;;;13.13;7.20;;;9.80;99.90;;;;;;5032799;28;20572;-74
2022/09/24 02:41:30;;;;;;;7.57;6.60;;;9.80;99.90;;;;;;5032897;28;20471;-73
2022/09/24 02:43:57;;;;;;;7.93;7.13;;;9.80;99.90;;;;;;5032961;28;20209;-73
2022/09/24 02:46:23;;;;;;;7.80;7.00;;;9.80;99.90;;;;;;5032973;28;21064;-73
2022/09/24 02:48:48;;;;;;;6.90;6.30;;;9.90;99.90;;;;;;5032787;28;20423;-73
2022/09/24 02:51:14;;;;;;;7.80;6.30;;;9.90;99.90;;;;;;5033011;28;20448;-73
2022/09/24 02:53:39;;;;;;;8.00;6.90;;;9.90;99.90;;;;;;5032814;28;20177;-73
2022/09/24 02:56:06;;;;;;;11.57;6.60;;;9.90;99.90;;;;;;5032491;28;20465;-73
2022/09/24 02:58:31;;;;;;;6.90;6.00;;;9.90;99.90;;;;;;5032362;28;20280;-73
2022/09/24 03:00:57;;;;;;;6.83;6.00;;;10.00;99.90;;;;;;5032560;28;20436;-73
2022/09/24 03:03:23;;;;;;;7.37;6.60;;;9.90;99.90;;;;;;5032539;28;20255;-74
2022/09/24 03:05:51;;;;;;;7.40;6.37;;;10.00;99.90;;;;;;5032593;28;20210;-73
2022/09/24 03:08:17;;;;;;;10.80;6.53;;;10.00;99.90;;;;;;5032198;28;20417;-73
2022/09/24 03:10:43;;;;;;;8.33;6.53;;;10.00;99.90;;;;;;5032297;28;20847;-74
2022/09/24 03:13:09;;;;;;;7.07;6.37;;;10.00;99.90;;;;;;5032296;28;20416;-73
2022/09/24 03:15:35;;;;;;;6.53;5.93;;;10.00;99.90;;;;;;5032349;28;20198;-73
2022/09/24 03:18:00;;;;;;;5.17;4.67;;;10.00;99.90;;;;;;5032131;28;20421;-73
2022/09/24 03:20:26;;;;;;;12.33;6.70;;;10.00;99.90;;;;;;5032219;28;20210;-74
2022/09/24 03:22:52;;;;;;;7.40;6.00;;;10.00;99.90;;;;;;5032159;28;20725;-73
2022/09/24 03:25:18;;;;;;;6.47;5.87;;;10.00;99.90;;;;;;5032207;28;20523;-73
2022/09/24 03:27:44;;;;;;;8.70;6.03;;;10.10;99.90;;;;;;5032048;28;20492;-75
2022/09/24 03:32:54;;;;;;;8.20;5.93;;;10.20;99.90;;;;;;5032150;28;20296;-73
2022/09/24 03:35:20;;;;;;;8.27;6.60;;;10.20;99.90;;;;;;5031885;28;20559;-73
2022/09/24 03:37:46;;;;;;;6.77;6.17;;;10.20;99.90;;;;;;5032077;28;20181;-73
2022/09/24 03:40:11;;;;;;;7.97;6.67;;;10.20;99.90;;;;;;5031712;28;20549;-73
2022/09/24 03:42:37;;;;;;;12.13;6.43;;;10.10;99.90;;;;;;5032083;28;20694;-73
2022/09/24 03:45:03;;;;;;;8.30;6.67;;;10.20;99.90;;;;;;5031759;28;20181;-73
2022/09/24 03:47:29;;;;;;;7.30;6.60;;;10.20;99.90;;;;;;5031830;28;20176;-73
2022/09/24 03:49:55;;;;;;;6.27;5.77;;;10.20;99.90;;;;;;5031044;28;20501;-74
2022/09/24 03:52:20;;;;;;;9.40;6.43;;;10.20;99.90;;;;;;5031721;28;20871;-73
2022/09/24 03:54:46;;;;;;;6.83;6.03;;;10.20;99.90;;;;;;5031881;28;20195;-75
2022/09/24 03:57:13;;;;;;;7.43;6.83;;;10.30;99.90;;;;;;5031540;28;20221;-73
2022/09/24 03:59:40;;;;;;;7.47;6.77;;;10.30;99.90;;;;;;5031776;28;20174;-73
2022/09/24 04:02:06;;;;;;;8.03;6.00;;;10.30;99.90;;;;;;5031533;28;20460;-73
2022/09/24 04:04:32;;;;;;;6.67;5.90;;;10.30;99.90;;;;;;5031731;28;20416;-73
2022/09/24 04:06:57;;;;;;;10.90;6.17;;;10.30;99.90;;;;;;5031604;28;20213;-73
2022/09/24 04:09:23;;;;;;;7.30;6.10;;;10.30;99.90;;;;;;5031901;28;20180;-73
2022/09/24 04:11:51;;;;;;;6.80;6.20;;;10.30;99.90;;;;;;5031646;28;20198;-73
2022/09/24 04:14:17;;;;;;;6.67;5.97;;;10.30;99.90;;;;;;5031466;28;20177;-73
2022/09/24 04:16:44;;;;;;;7.90;7.07;;;10.30;99.90;;;;;;5031789;28;20468;-72
2022/09/24 04:19:10;;;;;;;7.10;5.87;;;10.40;99.90;;;;;;5031279;28;20929;-73
2022/09/24 04:21:36;;;;;;;11.80;6.70;;;10.40;99.90;;;;;;5031461;28;20439;-73
2022/09/24 04:24:02;;;;;;;8.03;7.27;;;10.40;99.90;;;;;;5046793;28;20806;-75
2022/09/24 04:26:28;;;;;;;11.87;7.20;;;10.40;99.90;;;;;;5031442;28;20784;-74
2022/09/24 04:28:53;;;;;;;7.80;7.00;;;10.40;99.90;;;;;;5031431;28;20412;-73
2022/09/24 04:31:19;;;;;;;8.07;7.27;;;10.50;99.90;;;;;;5031171;28;20202;-73
2022/09/24 04:33:44;;;;;;;9.20;6.27;;;10.50;99.90;;;;;;5031994;28;20170;-73
2022/09/24 04:36:10;;;;;;;10.00;7.53;;;10.50;99.90;;;;;;5031273;28;20592;-73
2022/09/24 04:38:35;;;;;;;7.63;6.73;;;10.50;99.90;;;;;;5031900;28;20182;-74
2022/09/24 04:41:08;;;;;;;8.43;7.63;;;10.60;99.90;;;;;;5031287;28;20197;-74
2022/09/24 04:43:35;;;;;;;8.37;6.50;;;10.60;99.90;;;;;;5031849;28;20166;-73
2022/09/24 04:46:02;;;;;;;8.63;7.47;;;10.60;99.90;;;;;;5031670;28;20458;-73
2022/09/24 04:48:28;;;;;;;9.53;7.03;;;10.60;99.90;;;;;;5031641;28;20455;-75
2022/09/24 04:50:54;;;;;;;8.07;6.77;;;10.60;99.90;;;;;;5031421;28;20789;-74
2022/09/24 04:53:20;;;;;;;8.50;7.13;;;10.60;99.90;;;;;;5031765;28;20436;-73
2022/09/24 04:55:46;;;;;;;8.37;7.47;;;10.60;99.90;;;;;;5031290;28;20216;-73
2022/09/24 04:58:11;;;;;;;8.57;7.77;;;10.60;99.90;;;;;;5031090;28;20831;-73
2022/09/24 05:00:37;;;;;;;11.43;8.37;;;10.60;99.90;;;;;;5033145;28;20529;-73
2022/09/24 05:03:03;;;;;;;8.20;7.40;;;10.60;99.90;;;;;;5034632;28;20638;-74
2022/09/24 05:05:30;;;;;;;9.57;7.80;;;10.70;99.90;;;;;;5034813;28;20189;-72
2022/09/24 05:07:57;;;;;;;9.97;7.27;;;10.60;99.90;;;;;;5034560;28;20424;-73
2022/09/24 05:10:26;;;;;;;8.90;8.00;;;10.60;99.90;;;;;;5034690;28;20417;-73
2022/09/24 05:12:53;;;;;;;7.40;6.67;;;10.60;99.90;;;;;;5034549;28;20436;-73
2022/09/24 05:15:19;;;;;;;8.87;7.80;;;10.60;99.90;;;;;;5034674;28;20466;-73
2022/09/24 05:17:45;;;;;;;8.13;7.43;;;10.60;99.90;;;;;;5033255;28;20439;-73
2022/09/24 05:20:11;;;;;;;10.43;8.47;;;10.60;99.90;;;;;;5034386;28;20420;-73
2022/09/24 05:22:41;;;;;;;14.77;7.83;;;10.60;99.90;;;;;;5034500;28;20429;-73
2022/09/24 05:25:07;;;;;;;10.40;7.87;;;10.60;99.90;;;;;;5034490;28;20178;-72
2022/09/24 05:27:33;;;;;;;7.60;6.90;;;10.60;99.90;;;;;;5034301;28;20417;-73
2022/09/24 05:29:59;;;;;;;8.37;7.57;;;10.60;99.90;;;;;;5034376;28;20166;-73
2022/09/24 05:32:25;;;;;;;12.67;8.00;;;10.60;99.90;;;;;;5034125;28;20456;-73
2022/09/24 05:34:51;;;;;;;7.80;7.00;;;10.60;99.90;;;;;;5034212;28;20419;-73
2022/09/24 05:37:17;;;;;;;10.17;7.53;;;10.60;99.90;;;;;;5033753;28;20656;-73
2022/09/24 05:39:42;;;;;;;8.40;7.60;;;10.60;99.90;;;;;;5034159;28;20222;-72
2022/09/24 05:42:14;;;;;;;7.93;6.90;;;10.70;99.90;;;;;;5034101;28;20826;-73
2022/09/24 05:44:41;;;;;;;9.00;8.10;;;10.70;99.90;;;;;;5033971;28;20618;-73
2022/09/24 05:47:07;;;;;;;8.60;7.37;;;10.70;99.90;;;;;;5033757;28;20447;-73
2022/09/24 05:49:33;;;;;;;10.23;7.70;;;10.70;99.90;;;;;;5033710;28;20420;-72
2022/09/24 05:51:58;;;;;;;10.73;8.27;;;10.80;99.90;;;;;;5033790;28;20205;-72
2022/09/24 05:54:24;;;;;;;9.17;8.27;;;10.80;99.90;;;;;;5033681;28;20332;-74
2022/09/24 05:56:49;;;;;;;8.80;7.80;;;10.80;99.90;;;;;;5033730;28;20260;-73
2022/09/24 05:59:15;;;;;;;10.57;8.30;;;10.90;99.90;;;;;;5033044;28;20401;-74
2022/09/24 06:01:40;;;;;;;14.63;7.70;;;11.00;99.90;;;;;;5033425;28;20198;-74
2022/09/24 06:04:06;;;;;;;9.17;8.27;;;11.10;99.90;;;;;;5033192;28;20654;-74
2022/09/24 06:06:31;;;;;;;9.90;8.00;;;11.20;99.90;;;;;;5033527;28;20166;-74
2022/09/24 06:08:57;;;;;;;11.33;9.27;;;11.30;99.90;;;;;;5033083;28;20170;-74
2022/09/24 06:11:23;;;;;;;14.37;9.67;;;11.30;99.90;;;;;;5032149;28;20201;-74
2022/09/24 06:13:50;;;;;;;9.20;7.97;;;11.50;99.90;;;;;;5033432;28;20174;-74
2022/09/24 06:16:15;;;;;;;20.67;8.70;;;11.50;99.90;;;;;;5032956;28;20198;-74
2022/09/24 06:18:43;;;;;;;18.00;9.80;;;11.60;99.90;;;;;;5033022;28;20411;-74
2022/09/24 06:21:13;;;;;;;10.60;9.43;;;11.60;99.90;;;;;;5032832;28;20193;-74
2022/09/24 06:23:40;;;;;;;14.50;8.60;;;11.70;99.90;;;;;;5033226;28;20409;-74
2022/09/24 06:26:09;;;;;;;13.20;9.33;;;11.80;99.90;;;;;;5033010;28;20421;-74
2022/09/24 06:28:35;;;;;;;10.73;8.60;;;11.90;99.90;;;;;;5032983;28;20413;-74
2022/09/24 06:31:01;;;;;;;10.13;9.10;;;11.90;99.90;;;;;;5031102;28;20492;-73
2022/09/24 06:33:27;;;;;;;11.13;9.93;;;12.00;99.90;;;;;;5032891;28;20499;-74
2022/09/24 06:35:53;;;;;;;11.20;8.33;;;12.00;99.90;;;;;;5032670;28;20201;-74
2022/09/24 06:38:18;;;;;;;11.00;9.90;;;12.10;99.90;;;;;;5032555;28;20409;-74
2022/09/24 06:40:47;;;;;;;10.77;9.67;;;12.20;99.90;;;;;;5032580;28;20585;-74
2022/09/24 06:43:13;;;;;;;12.87;10.27;;;12.20;99.90;;;;;;5032642;28;20541;-74
2022/09/24 06:45:41;;;;;;;11.63;10.43;;;12.30;99.90;;;;;;5032614;28;20504;-74
2022/09/24 06:48:10;;;;;;;11.17;8.90;;;12.30;99.90;;;;;;5032714;28;20817;-74
2022/09/24 06:50:39;;;;;;;19.17;11.07;;;12.40;99.90;;;;;;5032780;28;20658;-74
2022/09/24 06:53:05;;;;;;;11.07;9.27;;;12.40;99.90;;;;;;5032568;28;20444;-74
2022/09/24 06:55:32;;;;;;;10.93;9.10;;;12.50;99.90;;;;;;5032559;28;21061;-74
2022/09/24 06:58:06;;;;;;;13.07;11.23;;;12.50;99.90;;;;;;5032411;28;20408;-74
2022/09/24 07:00:33;;;;;;;12.83;10.13;;;12.60;99.90;;;;;;5032697;28;20485;-74
2022/09/24 07:02:58;;;;;;;12.40;9.87;;;12.60;99.90;;;;;;5032260;28;20435;-74
2022/09/24 07:05:24;;;;;;;11.17;9.97;;;12.60;99.90;;;;;;5032455;28;20928;-74
2022/09/24 07:07:49;;;;;;;11.93;10.57;;;12.70;99.90;;;;;;5032261;28;20182;-74
2022/09/24 07:10:15;;;;;;;13.23;9.90;;;12.80;99.90;;;;;;5032531;28;20187;-74
2022/09/24 07:12:41;;;;;;;15.43;9.90;;;12.90;99.90;;;;;;5032253;28;20267;-74
2022/09/24 07:15:07;;;;;;;14.20;9.47;;;13.00;99.90;;;;;;5032157;28;20554;-74
2022/09/24 07:17:33;;;;;;;10.43;9.20;;;12.90;99.90;;;;;;5032321;28;20174;-74
2022/09/24 07:19:59;;;;;;;11.30;10.20;;;13.00;99.90;;;;;;5032155;28;20405;-74
2022/09/24 07:22:25;;;;;;;11.10;10.10;;;13.10;99.90;;;;;;5032099;28;20556;-74
2022/09/24 07:24:51;;;;;;;22.07;10.07;;;13.20;99.90;;;;;;5032061;28;20170;-74
2022/09/24 07:27:18;;;;;;;12.63;10.57;;;13.30;99.90;;;;;;5030530;28;20432;-74
2022/09/24 07:29:43;;;;;;;11.47;10.37;;;13.30;99.90;;;;;;5032151;28;20224;-74
2022/09/24 07:32:09;;;;;;;12.43;10.30;;;13.40;99.90;;;;;;5031732;28;20452;-74
2022/09/24 07:34:34;;;;;;;10.70;9.50;;;13.40;99.90;;;;;;5031878;28;20174;-74
2022/09/24 07:37:00;;;;;;;14.93;11.80;;;13.50;99.90;;;;;;5031756;28;20701;-73
2022/09/24 07:39:25;;;;;;;12.57;9.70;;;13.50;99.90;;;;;;5031779;28;20181;-74
2022/09/24 07:41:51;;;;;;;13.53;10.50;;;13.60;99.90;;;;;;5031913;28;20201;-74
2022/09/24 07:44:19;;;;;;;11.30;9.03;;;13.70;99.90;;;;;;5031611;28;20170;-74
2022/09/24 07:46:47;;;;;;;11.67;9.10;;;13.80;99.90;;;;;;5031848;28;20784;-74
2022/09/24 07:49:12;;;;;;;11.47;9.77;;;13.90;99.90;;;;;;5031469;28;20500;-74
2022/09/24 07:51:38;;;;;;;10.77;9.10;;;13.90;99.90;;;;;;5031698;28;20556;-74
2022/09/24 07:54:03;;;;;;;21.97;11.60;;;13.90;99.90;;;;;;5031576;28;20174;-74
2022/09/24 07:56:31;;;;;;;12.67;9.27;;;14.00;99.90;;;;;;5031909;28;20205;-75
2022/09/24 07:58:56;;;;;;;10.40;9.33;;;14.10;99.90;;;;;;5031336;28;20173;-74
2022/09/24 08:01:23;;;;;;;12.27;8.70;;;14.10;99.90;;;;;;5031393;28;20432;-74
2022/09/24 08:03:51;;;;;;;14.10;8.90;;;14.20;99.90;;;;;;5031614;28;20174;-75
2022/09/24 08:06:17;;;;;;;12.87;8.97;;;14.30;99.90;;;;;;5031525;28;20412;-74
2022/09/24 08:08:42;;;;;;;15.03;8.83;;;14.50;99.90;;;;;;5031642;28;20467;-74
2022/09/24 08:11:12;;;;;;;17.00;10.20;;;14.50;99.90;;;;;;5031184;28;20429;-74
2022/09/24 08:13:37;;;;;;;14.60;10.23;;;14.50;99.90;;;;;;5031743;28;20595;-75
2022/09/24 08:16:04;;;;;;;13.53;9.50;;;14.60;99.90;;;;;;5031293;28;20452;-75
2022/09/24 08:18:30;;;;;;;9.73;8.73;;;14.70;99.90;;;;;;5031438;28;20166;-74
2022/09/24 08:21:10;;;;;;;9.53;8.57;;;14.70;99.90;;;;;;5031347;28;20436;-74
2022/09/24 08:23:37;;;;;;;14.43;9.67;;;14.90;99.90;;;;;;5031566;28;20432;-74
2022/09/24 08:26:03;;;;;;;20.30;10.50;;;15.10;99.90;;;;;;5031186;28;20415;-74
2022/09/24 08:28:30;;;;;;;16.00;9.20;;;15.20;99.90;;;;;;5031426;28;20445;-75
2022/09/24 08:31:00;;;;;;;12.20;9.40;;;15.40;99.90;;;;;;5031109;28;20468;-74
2022/09/24 08:33:26;;;;;;;15.23;8.57;;;15.60;99.90;;;;;;5031606;28;20814;-75
2022/09/24 08:35:52;;;;;;;12.60;8.37;;;15.70;99.90;;;;;;5033607;28;20486;-74
2022/09/24 08:38:19;;;;;;;9.43;7.60;;;15.80;99.90;;;;;;5035006;28;20758;-74
2022/09/24 08:41:00;;;;;;;7.83;7.07;;;15.90;99.90;;;;;;5035112;28;20169;-74
2022/09/24 08:43:59;;;;;;;11.57;7.77;;;16.00;99.90;;;;;;5035236;28;20417;-75
2022/09/24 08:49:26;;;;;;;9.37;8.47;;;16.40;99.90;;;;;;5034818;28;20415;-74
2022/09/24 08:52:38;;;;;;;9.27;6.53;;;16.70;99.90;;;;;;5034760;28;20433;-74
2022/09/24 08:55:39;;;;;;;8.53;5.40;;;16.80;99.90;;;;;;5032371;28;20466;-74
2022/09/24 08:58:21;;;;;;;5.20;4.80;;;16.90;99.90;;;;;;5031328;28;20428;-74
2022/09/24 09:01:02;;;;;;;6.63;4.93;;;17.20;99.90;;;;;;5034584;28;20462;-75
2022/09/24 09:03:54;;;;;;;6.57;5.90;;;17.20;99.90;;;;;;5034701;28;20401;-74
2022/09/24 09:06:57;;;;;;;5.23;4.80;;;17.20;99.90;;;;;;5034435;28;20503;-74
2022/09/24 09:09:29;;;;;;;5.80;5.17;;;17.20;99.90;;;;;;5034218;28;20840;-74
2022/09/24 09:12:09;;;;;;;10.00;5.27;;;17.40;99.90;;;;;;5034312;28;20456;-75
2022/09/24 09:14:44;;;;;;;5.60;5.10;;;17.50;99.90;;;;;;5034388;28;20408;-74
2022/09/24 09:17:31;;;;;;;5.67;5.03;;;17.80;99.90;;;;;;5034092;28;20463;-74
2022/09/24 09:20:00;;;;;;;8.30;5.07;;;17.90;99.90;;;;;;5034258;28;20491;-74
2022/09/24 09:22:32;;;;;;;6.43;5.83;;;18.10;99.90;;;;;;5034199;28;20424;-75
2022/09/24 09:25:10;;;;;;;6.97;5.53;;;18.10;99.90;;;;;;5034262;28;20408;-74
2022/09/24 09:27:35;;;;;;;7.40;6.70;;;18.20;99.90;;;;;;5033921;28;20420;-74
2022/09/24 09:30:03;;;;;;;6.90;6.20;;;18.30;99.90;;;;;;5033978;28;20412;-74
2022/09/24 09:32:55;;;;;;;9.80;5.23;;;18.40;99.90;;;;;;5033921;28;20240;-74
2022/09/24 09:35:41;;;;;;;5.23;4.80;;;18.50;99.90;;;;;;5033896;28;20944;-74
2022/09/24 09:38:35;;;;;;;5.53;3.73;;;18.50;99.90;;;;;;5033594;28;20409;-74
2022/09/24 09:41:19;;;;;;;3.17;2.87;;;18.40;99.90;;;;;;5033797;28;20798;-74
2022/09/24 09:43:45;;;;;;;3.17;2.63;;;18.20;99.90;;;;;;5033972;28;20544;-75
2022/09/24 09:46:17;;;;;;;2.50;2.40;;;18.00;99.90;;;;;;5032605;28;21235;-74
2022/09/24 09:48:46;;;;;;;2.80;2.60;;;17.90;99.90;;;;;;5033968;28;20432;-75
2022/09/24 09:51:20;;;;;;;4.87;2.90;;;17.70;99.90;;;;;;5033771;28;20439;-74
2022/09/24 09:54:00;;;;;;;3.40;3.10;;;17.70;99.90;;;;;;5034206;28;20830;-74
2022/09/24 09:56:40;;;;;;;2.93;2.63;;;17.50;99.90;;;;;;5033868;28;20463;-74
2022/09/24 09:59:10;;;;;;;2.47;2.27;;;17.30;99.90;;;;;;5033686;28;20462;-74
2022/09/24 10:01:42;;;;;;;2.73;2.53;;;17.00;99.90;;;;;;5033669;28;20425;-74
2022/09/24 10:04:40;;;;;;;3.10;2.90;;;16.80;99.90;;;;;;5033757;28;20413;-74
2022/09/24 10:07:16;;;;;;;3.00;2.63;;;16.60;99.90;;;;;;5034254;28;20751;-74
2022/09/24 10:09:43;;;;;;;5.97;2.90;;;16.40;99.90;;;;;;5033340;28;20470;-72
2022/09/24 10:12:21;;;;;;;3.43;3.07;;;16.40;99.90;;;;;;5033351;28;20444;-75
2022/09/24 10:15:14;;;;;;;7.03;3.70;;;16.30;99.90;;;;;;5033503;28;20419;-74
2022/09/24 10:17:40;;;;;;;3.80;3.60;;;16.30;99.90;;;;;;5033406;28;20428;-74
2022/09/24 10:20:15;;;;;;;4.00;3.70;;;16.30;99.90;;;;;;5033000;28;20413;-74
2022/09/24 10:22:49;;;;;;;3.83;3.37;;;16.20;99.90;;;;;;5033169;28;20428;-74
2022/09/24 10:25:27;;;;;;;2.73;2.57;;;16.10;99.90;;;;;;5033012;28;20533;-74
2022/09/24 10:31:03;;;;;;;3.27;2.97;;;16.20;99.90;;;;;;5032731;28;20487;-74
2022/09/24 10:33:37;;;;;;;2.87;2.57;;;16.20;99.90;;;;;;5033114;28;20503;-74
2022/09/24 10:36:21;;;;;;;3.53;3.23;;;16.20;99.90;;;;;;5032626;28;21038;-74
2022/09/24 10:38:47;;;;;;;7.27;3.30;;;16.30;99.90;;;;;;5032868;28;20428;-74
2022/09/24 10:41:34;;;;;;;3.40;3.20;;;16.30;99.90;;;;;;5032697;28;20433;-74
2022/09/24 10:44:10;;;;;;;2.93;2.70;;;16.30;99.90;;;;;;5033268;28;20939;-74
2022/09/24 10:47:06;;;;;;;3.60;3.30;;;16.30;99.90;;;;;;5033184;28;20571;-75
2022/09/24 10:49:53;;;;;;;4.43;3.40;;;16.40;99.90;;;;;;5032884;28;20417;-74
2022/09/24 10:52:30;;;;;;;4.87;3.20;;;16.50;99.90;;;;;;5032836;28;20439;-74
2022/09/24 10:55:30;;;;;;;4.90;3.33;;;16.50;99.90;;;;;;5032777;28;20409;-74
2022/09/24 10:58:43;;;;;;;3.67;3.37;;;16.70;99.90;;;;;;5032332;28;20474;-74
2022/09/24 11:01:21;;;;;;;4.43;4.03;;;16.80;99.90;;;;;;5013086;28;20541;-74
2022/09/24 11:04:21;;;;;;;3.10;2.90;;;17.10;99.90;;;;;;5033023;28;20488;-74
2022/09/24 11:07:21;;;;;;;3.60;3.30;;;17.30;99.90;;;;;;5031660;28;20417;-75
2022/09/24 11:09:54;;;;;;;2.73;2.53;;;17.50;99.90;;;;;;5032559;28;20401;-75
2022/09/24 11:12:51;;;;;;;3.40;3.20;;;17.60;99.90;;;;;;5032675;28;20425;-74
2022/09/24 11:15:50;;;;;;;3.60;3.30;;;17.80;99.90;;;;;;5033669;28;20815;-74
2022/09/24 11:18:52;;;;;;;3.10;2.90;;;17.80;99.90;;;;;;5031825;28;20440;-75
2022/09/24 11:21:33;;;;;;;3.03;2.57;;;17.90;99.90;;;;;;5031892;28;20895;-75
2022/09/24 11:24:13;;;;;;;3.10;2.57;;;17.90;99.90;;;;;;5032117;28;20413;-74
2022/09/24 11:26:42;;;;;;;3.13;2.40;;;17.70;99.90;;;;;;5031984;28;20541;-75
2022/09/24 11:29:45;;;;;;;2.47;2.10;;;17.70;99.90;;;;;;5031616;28;20417;-74
2022/09/24 11:32:34;;;;;;;2.33;2.23;;;17.70;99.90;;;;;;5026530;28;20475;-75
2022/09/24 11:35:34;;;;;;;2.43;2.03;;;17.70;99.90;;;;;;5032035;28;20420;-74
2022/09/24 11:38:26;;;;;;;2.27;2.17;;;17.60;99.90;;;;;;5031842;28;20435;-74
2022/09/24 11:41:03;;;;;;;2.03;1.93;;;17.60;99.90;;;;;;5032048;28;20412;-74
2022/09/24 11:43:32;;;;;;;3.60;2.40;;;17.50;99.90;;;;;;5031775;28;20412;-74
2022/09/24 11:46:13;;;;;;;2.30;2.10;;;17.50;99.90;;;;;;5031678;28;20504;-74
2022/09/24 11:48:45;;;;;;;1.80;1.63;;;17.40;99.90;;;;;;5031591;28;20790;-75
2022/09/24 11:51:51;;;;;;;3.53;2.53;;;17.50;99.90;;;;;;5031471;28;20520;-73
2022/09/24 11:54:32;;;;;;;2.77;2.57;;;17.40;99.90;;;;;;5031825;28;20415;-74
2022/09/24 11:57:22;;;;;;;6.30;2.60;;;17.40;99.90;;;;;;5031519;28;20471;-74
2022/09/24 11:59:52;;;;;;;2.20;2.00;;;17.30;99.90;;;;;;5026251;28;20517;-74
2022/09/24 12:02:40;;;;;;;5.03;2.20;;;17.40;99.90;;;;;;5031352;28;20443;-74
2022/09/24 12:05:13;;;;;;;4.23;2.40;;;17.20;99.90;;;;;;5031364;28;20434;-73
2022/09/24 12:07:50;;;;;;;3.00;2.70;;;17.30;99.90;;;;;;5031399;28;20420;-74
2022/09/24 12:10:36;;;;;;;4.00;3.43;;;17.30;99.90;;;;;;5032981;28;20908;-75
2022/09/24 12:13:17;;;;;;;3.30;3.10;;;17.30;99.90;;;;;;5035607;28;20409;-74
2022/09/24 12:16:00;;;;;;;3.23;2.90;;;17.20;99.90;;;;;;5035307;28;20956;-74
2022/09/24 12:18:58;;;;;;;6.20;3.70;;;17.10;99.90;;;;;;5035362;28;20412;-75
2022/09/24 12:21:44;;;;;;;2.80;2.60;;;17.00;99.90;;;;;;5035263;28;20425;-74
2022/09/24 12:24:29;;;;;;;6.27;3.60;;;16.80;99.90;;;;;;5035268;28;20405;-75
2022/09/24 12:26:57;;;;;;;4.53;4.13;;;16.60;99.90;;;;;;5035478;28;20431;-75
2022/09/24 12:33:08;;;;;;;4.80;4.40;;;16.10;99.90;;;;;;5035540;28;20996;-75
2022/09/24 12:35:54;;;;;;;4.63;4.23;;;15.90;99.90;;;;;;5035154;28;20452;-74
2022/09/24 12:38:44;;;;;;;5.20;4.70;;;15.80;99.90;;;;;;5035205;28;20427;-74
2022/09/24 12:41:12;;;;;;;7.40;4.57;;;15.70;99.90;;;;;;5034749;28;20944;-74
2022/09/24 12:44:07;;;;;;;7.70;6.90;;;15.50;99.90;;;;;;5035390;28;20416;-74
2022/09/24 12:46:42;;;;;;;10.97;8.40;;;15.50;99.90;;;;;;5033758;28;20412;-74
2022/09/24 12:49:25;;;;;;;9.93;8.93;;;15.40;99.90;;;;;;5034732;28;20411;-73
2022/09/24 12:51:52;;;;;;;8.53;7.70;;;15.40;99.90;;;;;;5034718;28;20433;-74
2022/09/24 12:54:34;;;;;;;12.37;10.20;;;15.30;99.90;;;;;;5034748;28;20455;-74
2022/09/24 12:57:16;;;;;;;12.10;9.40;;;15.30;99.90;;;;;;5034708;28;20452;-74
2022/09/24 12:59:53;;;;;;;9.53;5.57;;;15.30;99.90;;;;;;5034690;28;20436;-74
2022/09/24 13:02:22;;;;;;;10.47;6.80;;;15.40;99.90;;;;;;5034820;28;20527;-74
2022/09/24 13:05:16;;;;;;;7.20;5.50;;;15.40;99.90;;;;;;5035760;28;20413;-74
2022/09/24 13:07:43;;;;;;;6.17;4.47;;;15.40;99.90;;;;;;5034600;28;20500;-73
2022/09/24 13:10:14;;;;;;;5.40;5.00;;;15.50;99.90;;;;;;5034542;28;20421;-74
2022/09/24 13:12:40;;;;;;;5.33;5.00;;;15.50;99.90;;;;;;5034830;28;20429;-73
2022/09/24 13:15:21;;;;;;;5.73;5.23;;;15.60;99.90;;;;;;5034881;28;20907;-73
2022/09/24 13:17:47;;;;;;;4.77;4.40;;;15.70;99.90;;;;;;5034625;28;20205;-73
2022/09/24 13:20:24;;;;;;;7.43;6.33;;;15.70;99.90;;;;;;5034220;28;20460;-73
2022/09/24 13:23:10;;;;;;;6.50;5.00;;;15.80;99.90;;;;;;5034771;28;20202;-73
2022/09/24 13:25:36;;;;;;;5.37;4.97;;;15.70;99.90;;;;;;5035004;28;20412;-73
2022/09/24 13:28:18;;;;;;;5.83;5.43;;;15.70;99.90;;;;;;5034434;28;20405;-73
2022/09/24 13:30:48;;;;;;;5.73;5.00;;;15.60;99.90;;;;;;5033040;28;20420;-73
2022/09/24 13:33:28;;;;;;;8.27;6.63;;;15.50;99.90;;;;;;5034275;28;20907;-72
2022/09/24 13:35:57;;;;;;;6.60;5.90;;;15.50;99.90;;;;;;5034417;28;20456;-73
2022/09/24 13:38:36;;;;;;;5.43;5.03;;;15.50;99.90;;;;;;5034296;28;20432;-74
2022/09/24 13:41:22;;;;;;;6.90;6.20;;;15.60;99.90;;;;;;5034083;28;20870;-73
2022/09/24 13:43:57;;;;;;;6.50;5.90;;;15.70;99.90;;;;;;5034450;28;20401;-73
2022/09/24 13:46:24;;;;;;;6.57;5.97;;;15.90;99.90;;;;;;5034217;28;20470;-73
2022/09/24 13:48:55;;;;;;;6.23;5.67;;;16.00;99.90;;;;;;5034026;28;20408;-73
2022/09/24 13:51:27;;;;;;;6.13;5.53;;;16.10;99.90;;;;;;5033835;28;20460;-73
2022/09/24 13:54:04;;;;;;;6.87;4.83;;;16.10;99.90;;;;;;5034071;28;20416;-73
2022/09/24 13:56:30;;;;;;;6.57;5.97;;;16.30;99.90;;;;;;5033940;28;20467;-73
2022/09/24 13:59:05;;;;;;;8.30;4.60;;;16.40;99.90;;;;;;5033624;28;20931;-73
2022/09/24 14:01:37;;;;;;;8.33;4.77;;;16.40;99.90;;;;;;5033774;28;20194;-73
2022/09/24 14:04:07;;;;;;;8.33;4.90;;;16.40;99.90;;;;;;5034101;28;20421;-73
2022/09/24 14:07:00;;;;;;;5.70;5.30;;;16.40;99.90;;;;;;5033964;28;20485;-73
2022/09/24 14:09:31;;;;;;;8.13;6.03;;;16.20;99.90;;;;;;5032677;28;20933;-73
2022/09/24 14:12:00;;;;;;;7.10;6.40;;;16.30;99.90;;;;;;5033628;28;20491;-74
2022/09/24 14:14:34;;;;;;;8.23;6.50;;;16.30;99.90;;;;;;5033940;28;20466;-73
2022/09/24 14:17:07;;;;;;;6.03;5.53;;;16.30;99.90;;;;;;5033892;28;20560;-73
2022/09/24 14:19:33;;;;;;;5.80;5.30;;;16.30;99.90;;;;;;5033869;28;20771;-74
2022/09/24 14:21:59;;;;;;;6.70;6.10;;;16.30;99.90;;;;;;5033455;28;20516;-73
2022/09/24 14:24:34;;;;;;;5.70;5.20;;;16.30;99.90;;;;;;5033615;28;20474;-72
2022/09/24 14:27:02;;;;;;;7.73;7.00;;;16.30;99.90;;;;;;5033782;28;20749;-73
2022/09/24 14:29:43;;;;;;;7.83;7.13;;;16.30;99.90;;;;;;5033413;28;20412;-73
2022/09/24 14:32:29;;;;;;;6.73;6.03;;;16.20;99.90;;;;;;5032513;28;20514;-73
2022/09/24 14:35:02;;;;;;;6.93;6.33;;;16.20;99.90;;;;;;5033021;28;20903;-73
2022/09/24 14:37:35;;;;;;;6.53;6.03;;;16.10;99.90;;;;;;5033061;28;20904;-73
2022/09/24 14:40:10;;;;;;;6.83;6.00;;;16.20;99.90;;;;;;5032605;28;20439;-73
2022/09/24 14:42:42;;;;;;;7.00;6.00;;;16.20;99.90;;;;;;5032859;28;20945;-73
2022/09/24 14:45:09;;;;;;;8.40;5.87;;;16.20;99.90;;;;;;5032617;28;20417;-73
2022/09/24 14:47:36;;;;;;;6.73;5.80;;;16.20;99.90;;;;;;5032924;28;20849;-74
2022/09/24 14:50:03;;;;;;;7.33;6.57;;;16.20;99.90;;;;;;5032205;28;20431;-73
2022/09/24 14:52:36;;;;;;;7.23;6.33;;;16.20;99.90;;;;;;5032813;28;20444;-74
2022/09/24 14:55:21;;;;;;;8.67;7.77;;;16.20;99.90;;;;;;5032453;28;20785;-73
2022/09/24 14:57:48;;;;;;;9.50;7.97;;;16.20;99.90;;;;;;5032833;28;20420;-73